Time;durP1;ratioP1;P1;durP2;ratioP2;P2;SDS_P1;SDS_P2;PMS_P1;PMS_P2;Temp;Humidity;BMP_temperature;BMP_pressure;BME280_temperature;BME280_humidity;BME280_pressure;Samples;Min_cycle;Max_cycle;Signal;HPM_P1;HPM_P2
2021/03/30 00:01:16;;;;;;;27.93;17.63;;;;;;;9.63;84.90;101126.16;232519;1174;114908;-67
2021/03/30 00:06:19;;;;;;;28.20;18.90;;;;;;;9.54;84.25;101119.33;232527;1170;115867;-67
2021/03/30 00:11:26;;;;;;;41.85;23.55;;;;;;;9.45;85.30;101127.48;233159;1169;116057;-68
2021/03/30 00:16:31;;;;;;;36.60;20.95;;;;;;;9.51;84.91;101133.84;232788;1174;115475;-69
2021/03/30 00:21:34;;;;;;;29.80;19.30;;;;;;;9.47;84.71;101129.13;232493;1174;115936;-70
2021/03/30 00:26:37;;;;;;;27.30;18.35;;;;;;;9.39;85.15;101119.44;232968;1174;115461;-69
2021/03/30 00:31:41;;;;;;;26.30;17.20;;;;;;;9.33;85.00;101109.56;233383;1174;115748;-69
2021/03/30 00:36:45;;;;;;;27.70;17.20;;;;;;;9.29;85.71;101116.27;232970;1174;116442;-70
2021/03/30 00:41:47;;;;;;;23.50;14.03;;;;;;;9.22;85.86;101104.75;232594;1174;115862;-70
2021/03/30 00:46:52;;;;;;;25.27;16.87;;;;;;;9.20;86.50;101109.44;233382;1174;115712;-71
2021/03/30 00:51:56;;;;;;;23.30;14.88;;;;;;;9.18;86.39;101098.98;232555;1174;115455;-70
2021/03/30 00:57:00;;;;;;;27.00;15.65;;;;;;;9.18;86.69;101096.33;233546;1175;115448;-70
2021/03/30 01:02:04;;;;;;;29.48;18.08;;;;;;;9.19;87.18;101102.47;232613;1174;115419;-69
2021/03/30 01:07:08;;;;;;;22.00;15.30;;;;;;;9.20;87.63;101106.78;233761;1174;116034;-69
2021/03/30 01:12:40;;;;;;;27.23;17.50;;;;;;;9.17;87.63;101101.88;233106;1175;115175;-66
2021/03/30 01:18:08;;;;;;;20.73;16.50;;;;;;;9.25;86.75;101099.88;232935;1171;115506;-67
2021/03/30 01:23:23;;;;;;;;;;;;;;;9.31;86.82;101093.78;232679;1174;115798;-67
2021/03/30 01:28:50;;;;;;;29.33;18.70;;;;;;;9.36;86.25;101106.52;234069;1174;103108;-68
2021/03/30 01:33:58;;;;;;;23.45;18.25;;;;;;;9.46;86.23;101117.66;232532;1174;115720;-69
2021/03/30 01:39:03;;;;;;;29.23;19.03;;;;;;;9.51;86.00;101117.05;234299;1174;115425;-69
2021/03/30 01:44:13;;;;;;;20.18;14.05;;;;;;;9.42;85.80;101111.07;235115;1174;115046;-68
2021/03/30 01:49:20;;;;;;;25.80;17.25;;;;;;;9.34;85.48;101111.20;235080;1174;115400;-69
2021/03/30 01:54:24;;;;;;;;;;;;;;;9.32;85.83;101099.92;233423;1174;115402;-68
2021/03/30 01:59:29;;;;;;;23.45;15.93;;;;;;;9.27;86.21;101078.39;234421;1174;103028;-67
2021/03/30 02:04:33;;;;;;;26.13;16.13;;;;;;;9.40;86.37;101081.16;234391;1174;115353;-67
2021/03/30 02:09:42;;;;;;;30.30;18.53;;;;;;;9.43;85.15;101086.09;233938;1174;116031;-67
2021/03/30 02:14:48;;;;;;;27.10;18.25;;;;;;;9.41;86.13;101077.48;233682;1167;114992;-67
2021/03/30 02:20:10;;;;;;;27.03;18.63;;;;;;;9.51;85.58;101071.80;233343;1174;115793;-67
2021/03/30 02:25:16;;;;;;;31.25;18.08;;;;;;;9.60;85.56;101074.12;232881;1174;115847;-67
2021/03/30 02:30:26;;;;;;;27.23;18.20;;;;;;;9.63;85.21;101081.72;232708;1174;115897;-67
2021/03/30 02:35:32;;;;;;;24.63;16.83;;;;;;;9.53;85.17;101080.41;232875;1176;115119;-67
2021/03/30 02:40:35;;;;;;;28.43;18.07;;;;;;;9.54;85.04;101071.41;232770;1174;115113;-67
2021/03/30 02:45:41;;;;;;;26.37;16.70;;;;;;;9.53;85.43;101069.77;232731;1174;115536;-67
2021/03/30 02:50:46;;;;;;;32.05;18.48;;;;;;;9.55;86.00;101063.23;232822;1174;115648;-66
2021/03/30 02:55:49;;;;;;;32.30;19.80;;;;;;;9.54;85.62;101066.91;233370;1174;115840;-65
2021/03/30 03:00:54;;;;;;;31.45;16.80;;;;;;;9.49;85.79;101064.00;232541;1167;115669;-69
2021/03/30 03:06:00;;;;;;;26.40;17.90;;;;;;;9.48;85.78;101062.36;233151;1176;115835;-69
2021/03/30 03:11:07;;;;;;;33.77;18.50;;;;;;;9.49;86.21;101064.00;233197;1174;115348;-69
2021/03/30 03:16:12;;;;;;;37.13;19.33;;;;;;;9.52;86.50;101063.61;232603;1174;115647;-68
2021/03/30 03:21:17;;;;;;;27.17;18.20;;;;;;;9.53;86.06;101062.59;233605;1174;115019;-69
2021/03/30 03:26:21;;;;;;;23.95;17.48;;;;;;;9.55;85.21;101076.54;232611;1174;115896;-69
2021/03/30 03:31:29;;;;;;;31.15;17.83;;;;;;;9.50;85.25;101078.96;232971;1174;116758;-69
2021/03/30 03:36:36;;;;;;;25.70;19.17;;;;;;;9.49;85.64;101081.81;235080;1174;116372;-69
2021/03/30 03:41:42;;;;;;;23.45;16.15;;;;;;;9.57;86.20;101089.66;235246;1174;115964;-69
2021/03/30 03:46:50;;;;;;;31.70;18.55;;;;;;;9.64;85.69;101088.69;234787;1174;140072;-68
2021/03/30 03:52:04;;;;;;;25.20;18.00;;;;;;;9.63;85.28;101087.05;234631;1174;115646;-68
2021/03/30 03:57:31;;;;;;;31.18;18.35;;;;;;;9.72;85.39;101088.54;234982;1174;117448;-70
2021/03/30 04:02:45;;;;;;;26.18;17.33;;;;;;;9.65;84.73;101089.51;234603;1174;115022;-68
2021/03/30 04:08:20;;;;;;;24.63;17.37;;;;;;;9.53;85.23;101085.73;234006;1174;114815;-68
2021/03/30 04:13:29;;;;;;;21.90;16.00;;;;;;;9.44;85.64;101087.75;232671;1167;137808;-67
2021/03/30 04:18:35;;;;;;;27.93;16.43;;;;;;;9.45;85.71;101092.88;233779;1174;115746;-68
2021/03/30 04:23:45;;;;;;;22.35;16.95;;;;;;;9.52;85.29;101082.25;233056;1174;194615;-69
2021/03/30 04:28:49;;;;;;;28.60;18.18;;;;;;;9.53;85.76;101083.89;232586;1174;115458;-68
2021/03/30 04:33:52;;;;;;;25.30;17.70;;;;;;;9.44;86.18;101093.07;232594;1174;115093;-67
2021/03/30 04:38:56;;;;;;;29.93;18.80;;;;;;;9.41;86.45;101114.75;232462;1169;115326;-66
2021/03/30 04:44:01;;;;;;;26.10;19.40;;;;;;;9.49;85.69;101121.73;233207;1174;115453;-65
2021/03/30 04:49:06;;;;;;;27.83;18.87;;;;;;;9.51;85.34;101117.87;232663;1174;115483;-66
2021/03/30 04:54:10;;;;;;;27.33;17.75;;;;;;;9.55;86.40;101116.47;232578;1173;115684;-66
2021/03/30 04:59:14;;;;;;;24.30;17.83;;;;;;;9.45;85.46;101114.17;232615;1174;115240;-69
2021/03/30 05:04:18;;;;;;;33.10;17.58;;;;;;;9.50;86.41;101121.55;232582;1174;115158;-69
2021/03/30 05:09:23;;;;;;;25.55;17.15;;;;;;;9.52;86.33;101114.19;232461;1174;114852;-68
2021/03/30 05:14:28;;;;;;;24.47;17.50;;;;;;;9.49;85.66;101124.40;232564;1174;114831;-67
2021/03/30 05:19:32;;;;;;;25.08;17.48;;;;;;;9.42;86.64;101119.05;233250;1174;115505;-67
2021/03/30 05:24:36;;;;;;;32.20;19.20;;;;;;;9.39;86.88;101122.92;233409;1174;115506;-66
2021/03/30 05:29:45;;;;;;;23.48;17.63;;;;;;;9.56;86.82;101141.25;233767;1174;114971;-67
2021/03/30 05:34:51;;;;;;;30.07;19.23;;;;;;;9.64;86.87;101147.27;234152;1174;115704;-67
2021/03/30 05:39:54;;;;;;;35.78;18.25;;;;;;;9.68;85.89;101153.84;232862;1174;116061;-66
2021/03/30 05:44:58;;;;;;;28.90;18.58;;;;;;;9.76;85.87;101160.88;233814;1174;115707;-68
2021/03/30 05:50:09;;;;;;;28.97;19.07;;;;;;;9.89;86.43;101158.27;233973;1174;116780;-67
2021/03/30 05:55:35;;;;;;;28.27;18.60;;;;;;;9.92;86.31;101165.88;235161;1174;116465;-68
2021/03/30 06:00:43;;;;;;;24.40;16.67;;;;;;;10.06;85.02;101174.79;235131;1167;116662;-67
2021/03/30 06:05:55;;;;;;;27.77;18.20;;;;;;;10.17;85.63;101168.89;234617;1174;116001;-67
2021/03/30 06:11:06;;;;;;;25.78;17.80;;;;;;;10.20;85.43;101168.53;233525;1174;116529;-66
2021/03/30 06:16:36;;;;;;;26.20;19.80;;;;;;;10.26;85.26;101173.08;232637;1174;117573;-67
2021/03/30 06:21:59;;;;;;;28.30;19.25;;;;;;;10.34;84.26;101175.58;233488;1174;116166;-68
2021/03/30 06:27:06;;;;;;;33.58;19.13;;;;;;;10.37;84.39;101172.52;233415;1174;116363;-67
2021/03/30 06:32:16;;;;;;;27.53;18.80;;;;;;;10.43;84.74;101173.55;232812;1174;116162;-68
2021/03/30 06:37:30;;;;;;;27.73;19.75;;;;;;;10.42;84.39;101174.56;233059;1174;115660;-66
2021/03/30 06:47:46;;;;;;;32.17;19.33;;;;;;;10.42;84.57;101180.72;232496;1174;116586;-64
2021/03/30 06:52:49;;;;;;;31.13;18.95;;;;;;;10.42;84.77;101178.05;233189;1174;117646;-67
2021/03/30 06:57:57;;;;;;;29.47;19.53;;;;;;;10.52;84.40;101183.03;232704;1174;115794;-65
2021/03/30 07:03:10;;;;;;;31.60;19.05;;;;;;;10.62;84.10;101174.66;232587;1174;117881;-65
2021/03/30 07:08:16;;;;;;;28.73;19.10;;;;;;;10.74;84.31;101181.87;233354;1174;115686;-67
2021/03/30 07:13:22;;;;;;;30.25;19.05;;;;;;;10.75;83.98;101177.36;232963;1175;116699;-67
2021/03/30 07:18:40;;;;;;;28.53;19.35;;;;;;;10.95;83.50;101178.25;232564;1177;116564;-68
2021/03/30 07:23:49;;;;;;;21.13;13.50;;;;;;;11.53;83.35;101175.84;233421;1174;116365;-66
2021/03/30 07:29:06;;;;;;;23.10;17.13;;;;;;;12.06;81.00;101179.30;232668;1174;116485;-67
2021/03/30 07:34:22;;;;;;;28.70;18.58;;;;;;;12.34;79.63;101187.03;233364;1174;118445;-69
2021/03/30 07:39:29;;;;;;;28.00;19.28;;;;;;;12.69;77.67;101197.39;235142;1174;115938;-68
2021/03/30 07:44:33;;;;;;;19.93;14.08;;;;;;;12.81;77.11;101206.39;233705;1174;116015;-67
2021/03/30 07:49:41;;;;;;;23.33;18.33;;;;;;;13.15;75.46;101200.64;235140;1174;116535;-67
2021/03/30 07:55:12;;;;;;;22.88;16.68;;;;;;;13.47;75.12;101203.31;234528;1174;116709;-69
2021/03/30 08:00:33;;;;;;;25.68;17.40;;;;;;;13.58;73.96;101204.47;232605;1175;116587;-70
2021/03/30 08:05:37;;;;;;;24.30;16.08;;;;;;;13.60;73.82;101200.53;233329;1174;115700;-71
2021/03/30 08:10:46;;;;;;;23.00;15.83;;;;;;;13.57;73.59;101209.01;233975;1174;116046;-71
2021/03/30 08:16:07;;;;;;;26.35;15.65;;;;;;;13.64;73.69;101211.64;232537;1174;115703;-69
2021/03/30 08:21:20;;;;;;;25.05;14.78;;;;;;;13.83;73.53;101216.81;232403;1174;115965;-68
2021/03/30 08:26:37;;;;;;;25.90;15.05;;;;;;;14.12;72.51;101217.16;232435;1174;116355;-68
2021/03/30 08:31:48;;;;;;;15.07;9.47;;;;;;;14.36;71.14;101226.22;233127;1174;116362;-69
2021/03/30 08:36:56;;;;;;;17.97;10.70;;;;;;;14.52;69.45;101225.63;232871;1174;116664;-69
2021/03/30 08:42:10;;;;;;;16.98;10.68;;;;;;;14.56;70.85;101226.01;232606;1176;116232;-67
2021/03/30 08:47:29;;;;;;;14.23;9.35;;;;;;;14.59;69.04;101228.25;233112;1174;116690;-71
2021/03/30 08:52:33;;;;;;;9.73;6.13;;;;;;;14.67;70.70;101228.77;232426;1174;116994;-64
2021/03/30 08:57:38;;;;;;;13.50;8.73;;;;;;;15.28;70.83;101229.61;232518;1173;115683;-68
2021/03/30 09:02:41;;;;;;;6.65;5.25;;;;;;;15.41;66.19;101221.33;232641;1174;116388;-68
2021/03/30 09:07:48;;;;;;;8.07;6.93;;;;;;;15.34;67.70;101228.66;232332;1174;116075;-70
2021/03/30 09:12:52;;;;;;;6.90;5.85;;;;;;;15.03;66.93;101230.55;232636;1174;116253;-69
2021/03/30 09:17:59;;;;;;;10.28;6.33;;;;;;;14.95;67.62;101236.26;233664;1174;116751;-67
2021/03/30 09:23:14;;;;;;;6.50;4.77;;;;;;;14.77;67.47;101236.27;233195;1174;116997;-69
2021/03/30 09:28:23;;;;;;;4.75;4.30;;;;;;;14.56;68.09;101234.88;232694;1170;118303;-66
2021/03/30 09:33:27;;;;;;;8.63;4.20;;;;;;;14.47;66.93;101228.98;232431;1174;116631;-68
2021/03/30 09:38:51;;;;;;;9.43;4.50;;;;;;;14.30;67.93;101240.52;232486;1174;117128;-67
2021/03/30 09:43:55;;;;;;;12.03;5.85;;;;;;;14.17;70.00;101233.41;232798;1174;114721;-70
2021/03/30 09:49:20;;;;;;;10.23;5.10;;;;;;;14.21;70.55;101239.97;233992;1174;115899;-67
2021/03/30 09:54:25;;;;;;;9.40;5.35;;;;;;;14.26;69.68;101239.31;233486;1174;115879;-68
2021/03/30 09:59:29;;;;;;;9.75;4.43;;;;;;;14.23;70.55;101242.44;235168;1174;115663;-67
2021/03/30 10:04:35;;;;;;;5.63;4.55;;;;;;;14.26;70.12;101242.81;232837;1174;115626;-67
2021/03/30 10:09:55;;;;;;;14.90;7.10;;;;;;;14.29;69.30;101247.73;234348;1174;115057;-68
2021/03/30 10:15:00;;;;;;;7.45;6.70;;;;;;;14.28;69.47;101248.78;233607;1174;116205;-68
2021/03/30 10:20:04;;;;;;;8.80;6.07;;;;;;;14.29;69.97;101246.92;233862;1174;115498;-68
2021/03/30 10:25:18;;;;;;;3.33;2.60;;;;;;;14.33;68.42;101240.89;234283;1174;115230;-67
2021/03/30 10:30:41;;;;;;;4.15;2.38;;;;;;;14.40;67.75;101240.80;233974;1174;115231;-67
2021/03/30 10:35:46;;;;;;;7.05;2.50;;;;;;;14.42;67.87;101236.06;233903;1170;116632;-67
2021/03/30 10:40:49;;;;;;;0.95;0.95;;;;;;;14.63;66.97;101227.58;232459;1174;116041;-68
2021/03/30 10:45:53;;;;;;;2.70;2.13;;;;;;;15.01;64.90;101229.95;232463;1176;116754;-68
2021/03/30 10:50:57;;;;;;;2.20;2.07;;;;;;;14.95;67.30;101235.44;232469;1174;117827;-68
2021/03/30 10:55:59;;;;;;;2.93;1.83;;;;;;;14.68;65.78;101234.92;232350;1175;116317;-71
2021/03/30 11:01:02;;;;;;;2.93;1.55;;;;;;;14.77;66.06;101230.90;232494;1174;116106;-68
2021/03/30 11:06:05;;;;;;;1.50;1.40;;;;;;;14.73;66.00;101240.45;232337;1174;115737;-72
2021/03/30 11:11:08;;;;;;;1.43;1.30;;;;;;;14.69;66.33;101241.94;232565;1174;115496;-70
2021/03/30 11:16:11;;;;;;;1.95;1.43;;;;;;;14.60;66.77;101237.94;232310;1174;115672;-72
2021/03/30 11:21:14;;;;;;;4.50;1.87;;;;;;;14.53;67.05;101234.50;232557;1174;116162;-68
2021/03/30 11:26:16;;;;;;;1.73;1.38;;;;;;;14.56;68.14;101234.06;233079;1174;116836;-68
2021/03/30 11:36:43;;;;;;;3.10;1.43;;;;;;;14.55;67.26;101227.88;232286;1174;116598;-68
2021/03/30 11:41:48;;;;;;;3.37;2.43;;;;;;;14.69;66.67;101221.28;234051;1174;116250;-68
2021/03/30 11:46:52;;;;;;;1.73;1.63;;;;;;;14.76;67.77;101223.89;232584;1167;115739;-67
2021/03/30 11:51:56;;;;;;;2.03;1.63;;;;;;;14.60;66.96;101219.97;233761;1176;116287;-67
2021/03/30 11:57:01;;;;;;;1.23;1.23;;;;;;;14.67;67.66;101220.72;232403;1174;116112;-67
2021/03/30 12:02:04;;;;;;;3.90;2.83;;;;;;;14.75;66.92;101223.07;232514;1174;115423;-67
2021/03/30 12:07:08;;;;;;;3.20;2.40;;;;;;;14.70;67.66;101212.19;233648;1175;115635;-68
2021/03/30 12:12:31;;;;;;;2.47;2.10;;;;;;;14.60;66.23;101203.05;234597;1176;115649;-68
2021/03/30 12:17:35;;;;;;;2.50;2.35;;;;;;;14.73;67.50;101205.55;234962;1174;114995;-68
2021/03/30 12:22:38;;;;;;;4.65;3.55;;;;;;;14.74;66.89;101207.19;233749;1174;116058;-71
2021/03/30 12:27:41;;;;;;;4.40;2.97;;;;;;;14.67;67.28;101201.11;233946;1174;220250;-68
2021/03/30 12:32:44;;;;;;;3.40;3.20;;;;;;;14.69;67.01;101202.49;232344;1174;115653;-67
2021/03/30 12:37:48;;;;;;;1.80;1.70;;;;;;;14.54;67.71;101199.40;233532;1170;115331;-69
2021/03/30 12:42:53;;;;;;;3.53;3.23;;;;;;;14.65;68.64;101192.46;232635;1174;115459;-67
2021/03/30 12:47:57;;;;;;;4.25;3.00;;;;;;;14.67;67.66;101191.20;232294;1174;115168;-68
2021/03/30 12:53:01;;;;;;;4.17;3.50;;;;;;;14.65;68.26;101187.91;232523;1174;114942;-67
2021/03/30 12:58:05;;;;;;;8.50;3.20;;;;;;;14.57;67.22;101200.81;232902;1174;115676;-67
2021/03/30 13:03:08;;;;;;;4.90;3.70;;;;;;;14.74;66.96;101181.17;232965;1174;115998;-67
2021/03/30 13:08:12;;;;;;;5.18;3.98;;;;;;;14.82;66.79;101180.04;232518;1176;115427;-68
2021/03/30 13:13:15;;;;;;;2.93;2.73;;;;;;;14.75;66.60;101176.62;232447;1176;116137;-68
2021/03/30 13:18:19;;;;;;;3.10;2.90;;;;;;;14.70;67.25;101163.88;232366;1174;114938;-67
2021/03/30 13:23:23;;;;;;;3.00;2.78;;;;;;;14.68;68.00;101160.59;232417;1174;119706;-68
2021/03/30 13:28:27;;;;;;;7.85;3.90;;;;;;;14.81;67.33;101148.88;232369;1174;115497;-67
2021/03/30 13:33:32;;;;;;;3.93;3.63;;;;;;;14.77;67.63;101134.27;232931;1174;117419;-67
2021/03/30 13:38:35;;;;;;;5.43;4.50;;;;;;;14.88;67.15;101151.47;232444;1174;115005;-68
2021/03/30 13:43:38;;;;;;;4.53;4.10;;;;;;;14.91;66.58;101154.52;232490;1174;115858;-67
2021/03/30 13:48:41;;;;;;;4.63;3.83;;;;;;;14.89;68.53;101151.23;232777;1174;115052;-69
2021/03/30 13:53:44;;;;;;;5.03;4.03;;;;;;;14.94;67.67;101143.33;232916;1174;115096;-66
2021/03/30 13:58:48;;;;;;;6.23;4.30;;;;;;;15.03;66.59;101133.87;233239;1174;115325;-67
2021/03/30 14:03:52;;;;;;;6.15;5.05;;;;;;;15.06;65.30;101125.36;232496;1174;114681;-68
2021/03/30 14:08:56;;;;;;;5.03;4.47;;;;;;;15.17;66.20;101126.44;233093;1174;115087;-67
2021/03/30 14:14:12;;;;;;;5.33;4.53;;;;;;;15.21;66.01;101134.86;234715;1174;115395;-69
2021/03/30 14:24:22;;;;;;;;;;;;;;;15.48;64.48;101128.81;232814;1174;115896;-68
2021/03/30 14:29:26;;;;;;;4.43;4.00;;;;;;;15.57;65.49;101125.81;233646;1174;103107;-69
2021/03/30 14:34:38;;;;;;;4.55;3.90;;;;;;;15.47;64.26;101120.98;232435;1171;115544;-67
2021/03/30 14:39:43;;;;;;;4.63;3.67;;;;;;;15.45;65.48;101117.70;232615;1171;114954;-68
2021/03/30 14:55:47;;;;;;;5.37;4.97;;;;;;;15.44;64.94;101111.52;232496;1169;115451;-67
2021/03/30 15:06:14;;;;;;;5.20;4.80;;;;;;;15.16;65.18;101093.39;232427;1174;118794;-71
2021/03/30 15:11:17;;;;;;;4.40;4.10;;;;;;;14.93;67.39;101093.36;232751;1174;115886;-70
2021/03/30 15:16:19;;;;;;;5.50;4.00;;;;;;;15.05;66.49;101096.86;232459;1174;117131;-67
2021/03/30 15:21:23;;;;;;;5.08;4.55;;;;;;;15.09;66.22;101097.22;232513;1174;116169;-65
2021/03/30 15:26:26;;;;;;;4.25;3.88;;;;;;;15.04;66.41;101089.04;233452;1174;115380;-67
2021/03/30 15:31:29;;;;;;;5.53;4.73;;;;;;;15.06;67.37;101090.45;232647;1174;115604;-67
2021/03/30 15:36:33;;;;;;;4.80;4.45;;;;;;;14.97;66.75;101075.74;232512;1174;115064;-65
2021/03/30 15:41:56;;;;;;;4.85;4.45;;;;;;;14.86;67.69;101076.52;232913;1174;115980;-67
2021/03/30 15:52:23;;;;;;;5.15;4.75;;;;;;;14.73;67.39;101079.39;234113;1167;115635;-68
2021/03/30 15:57:26;;;;;;;4.15;3.80;;;;;;;14.75;67.95;101077.30;232463;1174;115521;-71
2021/03/30 16:02:31;;;;;;;5.80;5.20;;;;;;;14.62;68.12;101074.83;232386;1174;115359;-67
2021/03/30 16:07:36;;;;;;;5.53;5.03;;;;;;;14.63;68.50;101071.92;235026;1174;115414;-68
2021/03/30 16:12:41;;;;;;;6.40;5.80;;;;;;;14.69;68.98;101070.16;234672;1174;116134;-67
2021/03/30 16:17:45;;;;;;;5.05;4.65;;;;;;;14.70;69.26;101063.75;235089;1174;115502;-68
2021/03/30 16:22:48;;;;;;;8.50;5.30;;;;;;;14.61;68.87;101059.78;235024;1174;115416;-68
2021/03/30 16:27:51;;;;;;;7.63;5.53;;;;;;;14.50;68.55;101047.95;233110;1174;115661;-68
2021/03/30 16:32:54;;;;;;;6.53;4.40;;;;;;;14.32;68.81;101054.16;233588;1174;115605;-67
2021/03/30 16:37:57;;;;;;;5.13;4.58;;;;;;;14.24;69.54;101064.38;233555;1174;115923;-71
2021/03/30 16:43:01;;;;;;;5.47;4.73;;;;;;;14.12;70.80;101053.59;233365;1174;115524;-67
2021/03/30 16:48:05;;;;;;;4.53;4.13;;;;;;;13.99;72.40;101059.95;232566;1174;116079;-67
2021/03/30 16:53:09;;;;;;;10.83;7.00;;;;;;;13.80;73.28;101050.27;232335;1174;116854;-69
2021/03/30 16:58:13;;;;;;;5.43;3.85;;;;;;;13.67;73.24;101045.07;233361;1174;115082;-67
2021/03/30 17:03:17;;;;;;;3.90;3.27;;;;;;;13.41;73.57;101057.70;232552;1174;116237;-67
2021/03/30 17:08:20;;;;;;;6.00;4.37;;;;;;;13.28;73.71;101063.17;232678;1174;115508;-68
2021/03/30 17:13:24;;;;;;;4.50;4.10;;;;;;;13.11;74.49;101062.89;232348;1174;115654;-65
2021/03/30 17:18:29;;;;;;;8.55;4.98;;;;;;;12.97;73.82;101065.88;233002;1174;115651;-66
2021/03/30 17:23:34;;;;;;;5.10;4.70;;;;;;;12.78;74.94;101070.36;232419;1176;116315;-65
2021/03/30 17:28:37;;;;;;;4.73;4.33;;;;;;;12.60;76.39;101064.91;232994;1174;116694;-66
2021/03/30 17:33:41;;;;;;;4.53;4.13;;;;;;;12.36;74.97;101064.64;232626;1174;115531;-67
2021/03/30 17:38:45;;;;;;;5.00;4.57;;;;;;;12.10;75.81;101070.11;232526;1174;115806;-68
2021/03/30 17:43:49;;;;;;;5.15;4.78;;;;;;;11.84;76.39;101064.87;232461;1174;117277;-68
2021/03/30 17:48:52;;;;;;;5.98;5.48;;;;;;;11.61;76.84;101067.98;233211;1174;115329;-68
2021/03/30 17:53:56;;;;;;;12.75;10.70;;;;;;;11.50;77.62;101068.62;233794;1174;115495;-67
2021/03/30 17:58:59;;;;;;;9.67;8.63;;;;;;;11.31;77.69;101075.64;232618;1174;116301;-66
2021/03/30 18:04:02;;;;;;;10.55;8.10;;;;;;;11.02;78.55;101072.33;232495;1174;116327;-68
2021/03/30 18:09:05;;;;;;;14.03;8.03;;;;;;;10.87;78.29;101074.39;232521;1174;116696;-68
2021/03/30 18:14:09;;;;;;;11.48;9.10;;;;;;;10.74;78.91;101069.84;233578;1174;115473;-68
2021/03/30 18:19:14;;;;;;;11.80;6.83;;;;;;;10.56;79.37;101071.47;234492;1174;118513;-68
2021/03/30 18:24:18;;;;;;;4.97;4.53;;;;;;;10.32;79.91;101070.19;233214;1174;116219;-66
2021/03/30 18:29:21;;;;;;;7.70;6.25;;;;;;;10.14;80.20;101070.69;232689;1174;115749;-70
2021/03/30 18:34:28;;;;;;;12.30;11.00;;;;;;;10.04;81.48;101076.41;233134;1174;116208;-68
2021/03/30 18:39:31;;;;;;;17.10;12.60;;;;;;;9.90;81.80;101061.38;233337;1174;116219;-70
2021/03/30 18:44:36;;;;;;;10.77;8.97;;;;;;;9.70;81.76;101060.46;233557;1174;115933;-69
2021/03/30 18:49:52;;;;;;;12.33;9.90;;;;;;;9.58;82.99;101060.18;233217;1174;115967;-69
2021/03/30 18:54:55;;;;;;;13.80;10.90;;;;;;;9.54;81.88;101061.58;233111;1174;115556;-67
2021/03/30 19:05:26;;;;;;;32.10;20.33;;;;;;;9.56;83.25;101050.74;232305;1174;116172;-69
2021/03/30 19:10:32;;;;;;;23.53;15.80;;;;;;;9.55;81.11;101052.58;232488;1174;115943;-69
2021/03/30 19:15:36;;;;;;;36.37;20.50;;;;;;;9.52;81.02;101052.97;232354;1174;115067;-68
2021/03/30 19:20:39;;;;;;;28.83;20.48;;;;;;;9.35;81.50;101056.97;232518;1174;116098;-68
2021/03/30 19:25:44;;;;;;;31.65;20.10;;;;;;;9.18;81.30;101047.61;232311;1174;116281;-67
2021/03/30 19:30:51;;;;;;;47.03;22.80;;;;;;;9.07;83.06;101044.48;232500;1174;116119;-68
2021/03/30 19:36:01;;;;;;;25.30;16.87;;;;;;;8.86;83.36;101052.51;232709;1174;115415;-68
2021/03/30 19:41:05;;;;;;;23.97;18.40;;;;;;;8.71;83.53;101054.40;232410;1174;115558;-71
2021/03/30 19:46:10;;;;;;;32.75;23.08;;;;;;;8.66;83.64;101051.48;232439;1174;115909;-66
2021/03/30 19:51:19;;;;;;;35.00;23.45;;;;;;;8.58;83.96;101049.77;232844;1174;116204;-66
2021/03/30 19:56:23;;;;;;;41.43;26.83;;;;;;;8.54;83.62;101045.05;232863;1174;115325;-69
2021/03/30 20:01:27;;;;;;;31.68;25.65;;;;;;;8.42;84.19;101039.39;232436;1174;115716;-65
2021/03/30 20:06:31;;;;;;;47.77;28.80;;;;;;;8.57;85.25;101041.98;232392;1173;116267;-66
2021/03/30 20:11:34;;;;;;;72.07;43.80;;;;;;;8.71;84.81;101043.77;234699;1174;115722;-68
2021/03/30 20:16:37;;;;;;;53.65;36.33;;;;;;;8.78;84.10;101029.52;234978;1174;116386;-70
2021/03/30 20:21:42;;;;;;;49.95;29.08;;;;;;;8.83;83.10;101039.59;235133;1174;115569;-67
2021/03/30 20:26:46;;;;;;;34.58;25.95;;;;;;;8.83;82.18;101036.11;235118;1174;115811;-67
2021/03/30 20:31:50;;;;;;;44.17;29.87;;;;;;;8.77;83.08;101037.69;234476;1174;115642;-67
2021/03/30 20:36:54;;;;;;;49.47;31.50;;;;;;;8.84;82.98;101035.92;233965;1168;117803;-67
2021/03/30 20:41:58;;;;;;;40.53;28.83;;;;;;;8.73;81.78;101037.25;232541;1170;117073;-67
2021/03/30 20:47:03;;;;;;;56.85;35.85;;;;;;;8.71;83.30;101015.34;233443;1174;115587;-68
2021/03/30 20:52:07;;;;;;;47.87;32.77;;;;;;;8.78;84.09;101024.20;232505;1174;116161;-67
2021/03/30 20:57:10;;;;;;;45.88;30.48;;;;;;;8.82;84.01;101023.83;232768;1174;116201;-66
2021/03/30 21:02:14;;;;;;;40.13;28.97;;;;;;;8.78;83.63;101018.89;232245;1174;117392;-66
2021/03/30 21:07:18;;;;;;;43.63;29.27;;;;;;;8.78;83.18;101012.75;233103;1174;119007;-64
2021/03/30 21:12:22;;;;;;;42.28;29.38;;;;;;;8.70;83.12;101015.53;232916;1175;116499;-66
2021/03/30 21:17:26;;;;;;;36.88;27.28;;;;;;;8.55;82.89;101014.80;232489;1174;116418;-66
2021/03/30 21:22:30;;;;;;;45.43;28.93;;;;;;;8.46;84.39;101013.27;232329;1174;116710;-69
2021/03/30 21:27:33;;;;;;;40.60;28.00;;;;;;;8.37;83.09;101023.19;233057;1174;119636;-67
2021/03/30 21:32:40;;;;;;;42.60;26.50;;;;;;;8.22;83.36;101017.91;232484;1174;116398;-66
2021/03/30 21:37:45;;;;;;;39.27;25.27;;;;;;;8.09;82.28;101017.75;232472;1173;116432;-69
2021/03/30 21:42:49;;;;;;;42.55;27.40;;;;;;;8.06;82.93;101012.81;232528;1174;116046;-67
2021/03/30 21:47:53;;;;;;;54.33;29.30;;;;;;;7.92;84.10;101011.03;232482;1175;116278;-66
2021/03/30 21:52:56;;;;;;;42.93;28.63;;;;;;;7.92;84.02;101005.72;232388;1168;116115;-67
2021/03/30 21:58:00;;;;;;;48.15;31.00;;;;;;;7.99;84.71;101002.11;232813;1174;116651;-66
2021/03/30 22:03:07;;;;;;;56.60;31.63;;;;;;;8.06;85.05;100995.05;233969;1174;116502;-67
2021/03/30 22:08:10;;;;;;;36.30;24.95;;;;;;;8.02;84.98;100999.08;233353;1174;115132;-65
2021/03/30 22:13:19;;;;;;;37.00;25.25;;;;;;;7.92;83.66;100992.45;232345;1170;115641;-69
2021/03/30 22:18:24;;;;;;;63.37;36.07;;;;;;;7.96;85.68;100991.03;232481;1170;115892;-68
2021/03/30 22:23:32;;;;;;;40.20;26.75;;;;;;;7.97;84.64;100990.85;233409;1174;115746;-70
2021/03/30 22:28:36;;;;;;;35.43;25.53;;;;;;;7.95;83.80;100984.11;234974;1174;115983;-67
2021/03/30 22:33:42;;;;;;;45.47;30.67;;;;;;;7.88;84.44;100994.65;235012;1174;115846;-67
2021/03/30 22:38:48;;;;;;;41.27;28.70;;;;;;;7.95;85.81;100989.42;235166;1174;115929;-64
2021/03/30 22:43:51;;;;;;;33.03;22.60;;;;;;;7.91;83.03;100994.28;234126;1174;115702;-63
2021/03/30 22:48:55;;;;;;;44.70;30.10;;;;;;;7.78;85.30;100996.77;233475;1174;141198;-63
2021/03/30 22:53:58;;;;;;;35.80;25.00;;;;;;;7.71;84.10;100994.02;233866;1174;115245;-64
2021/03/30 22:59:02;;;;;;;31.67;22.67;;;;;;;7.59;83.16;101000.82;233166;1174;115722;-66
2021/03/30 23:04:07;;;;;;;39.85;25.55;;;;;;;7.45;83.94;100998.98;233187;1174;115989;-66
2021/03/30 23:09:10;;;;;;;29.60;21.73;;;;;;;7.33;83.41;101006.59;232587;1171;116868;-67
2021/03/30 23:14:14;;;;;;;35.83;22.73;;;;;;;7.34;84.73;101002.08;232645;1174;117031;-67
2021/03/30 23:19:17;;;;;;;25.40;19.83;;;;;;;7.23;83.65;101000.73;233043;1174;115315;-67
2021/03/30 23:24:22;;;;;;;28.25;19.85;;;;;;;7.21;85.02;101002.73;232893;1174;115644;-66
2021/03/30 23:29:25;;;;;;;26.67;19.13;;;;;;;7.05;83.45;101001.06;233123;1174;116351;-66
2021/03/30 23:34:29;;;;;;;27.17;21.63;;;;;;;6.85;84.30;100999.94;232903;1174;115010;-67
2021/03/30 23:39:34;;;;;;;34.58;23.95;;;;;;;6.63;84.66;100991.02;232470;1174;115113;-65
2021/03/30 23:44:38;;;;;;;38.83;25.70;;;;;;;6.62;84.21;100988.55;232459;1174;115470;-66